createdAt,value
2018-10-18T00:00:01.569Z,99.90
2018-10-18T00:02:32.832Z,99.90
2018-10-18T00:05:04.109Z,99.90
2018-10-18T00:07:35.536Z,99.90
2018-10-18T00:10:07.544Z,99.90
2018-10-18T00:12:38.946Z,99.90
2018-10-18T00:15:10.901Z,99.90
2018-10-18T00:17:48.215Z,99.90
2018-10-18T00:20:19.502Z,99.90
2018-10-18T00:22:50.946Z,99.90
2018-10-18T00:25:22.259Z,99.90
2018-10-18T00:27:53.555Z,99.90
2018-10-18T00:30:25.315Z,99.90
2018-10-18T00:32:56.584Z,99.90
2018-10-18T00:35:27.983Z,99.90
2018-10-18T00:37:59.241Z,99.90
2018-10-18T00:40:30.792Z,99.90
2018-10-18T00:43:01.885Z,99.90
2018-10-18T00:45:33.212Z,99.90
2018-10-18T00:48:04.373Z,99.90
2018-10-18T00:50:35.645Z,99.90
2018-10-18T00:53:07.246Z,99.90
2018-10-18T00:55:38.705Z,99.90
2018-10-18T00:58:10.459Z,99.90
2018-10-18T01:00:41.919Z,99.90
2018-10-18T01:06:15.661Z,99.90
2018-10-18T01:08:54.433Z,99.90
2018-10-18T01:51:05.918Z,99.90
2018-10-18T01:53:37.237Z,99.90
2018-10-18T01:56:09.066Z,99.90
2018-10-18T02:02:03.989Z,99.90
2018-10-18T02:04:35.511Z,99.90
2018-10-18T02:07:06.563Z,99.90
2018-10-18T02:09:38.148Z,99.90
2018-10-18T02:12:09.808Z,99.90
2018-10-18T02:14:41.123Z,99.90
2018-10-18T02:17:12.601Z,99.90
2018-10-18T02:19:45.833Z,99.90
2018-10-18T03:02:16.350Z,99.90
2018-10-18T03:04:48.051Z,99.90
2018-10-18T03:07:19.628Z,99.90
2018-10-18T03:09:51.215Z,99.90
2018-10-18T03:12:22.374Z,99.90
2018-10-18T03:14:53.875Z,99.90
2018-10-18T03:17:25.135Z,99.90
2018-10-18T03:19:56.193Z,99.90
2018-10-18T03:22:27.524Z,99.90
2018-10-18T03:24:58.793Z,99.90
2018-10-18T03:27:30.427Z,99.90
2018-10-18T03:30:01.791Z,99.90
2018-10-18T03:32:43.527Z,99.90
2018-10-18T03:35:14.886Z,99.90
2018-10-18T03:37:46.346Z,99.90
2018-10-18T03:40:17.523Z,99.90
2018-10-18T03:42:51.533Z,99.90
2018-10-18T03:45:22.788Z,99.90
2018-10-18T03:47:54.502Z,99.90
2018-10-18T03:50:25.550Z,99.90
2018-10-18T03:52:56.627Z,99.90
2018-10-18T03:55:27.979Z,99.90
2018-10-18T03:57:59.269Z,99.90
2018-10-18T04:00:30.588Z,99.90
2018-10-18T04:03:02.103Z,99.90
2018-10-18T04:05:33.407Z,99.90
2018-10-18T04:08:04.705Z,99.90
2018-10-18T04:10:36.426Z,99.90
2018-10-18T04:13:08.144Z,99.90
2018-10-18T04:15:39.911Z,99.90
2018-10-18T04:18:11.227Z,99.90
2018-10-18T04:20:42.486Z,99.90
2018-10-18T04:23:13.660Z,99.90
2018-10-18T04:25:45.166Z,99.90
2018-10-18T04:28:16.524Z,99.90
2018-10-18T04:30:48.017Z,99.90
2018-10-18T04:33:19.475Z,99.90
2018-10-18T04:35:50.606Z,99.90
2018-10-18T04:38:21.911Z,99.90
2018-10-18T04:41:08.032Z,99.90
2018-10-18T04:43:39.473Z,99.90
2018-10-18T04:46:10.626Z,99.90
2018-10-18T04:48:42.471Z,99.90
2018-10-18T04:51:13.886Z,99.90
2018-10-18T04:53:45.145Z,99.90
2018-10-18T04:56:16.363Z,99.90
2018-10-18T04:58:47.706Z,99.90
2018-10-18T05:01:22.127Z,99.90
2018-10-18T05:03:53.463Z,99.90
2018-10-18T05:06:33.599Z,99.90
2018-10-18T05:09:06.479Z,99.90
2018-10-18T05:11:37.879Z,99.90
2018-10-18T05:14:09.097Z,99.90
2018-10-18T05:16:41.014Z,99.90
2018-10-18T05:19:12.161Z,99.90
2018-10-18T05:21:43.398Z,99.90
2018-10-18T05:24:14.796Z,99.90
2018-10-18T05:26:45.901Z,99.90
2018-10-18T05:29:17.199Z,99.90
2018-10-18T05:31:48.612Z,99.90
2018-10-18T05:34:20.068Z,99.90
2018-10-18T05:36:59.721Z,99.90
2018-10-18T05:39:30.862Z,99.90
2018-10-18T05:42:02.078Z,99.90
2018-10-18T05:44:39.488Z,99.90
2018-10-18T05:47:10.817Z,99.90
2018-10-18T05:52:44.512Z,99.90
2018-10-18T05:55:15.681Z,99.90
2018-10-18T06:00:49.240Z,99.90
2018-10-18T06:03:23.825Z,99.90
2018-10-18T06:05:55.068Z,99.90
2018-10-18T06:08:26.246Z,99.90
2018-10-18T06:11:06.965Z,99.90
2018-10-18T06:13:52.385Z,99.90
2018-10-18T06:16:24.767Z,99.90
2018-10-18T06:18:56.157Z,99.90
2018-10-18T06:21:27.402Z,99.90
2018-10-18T06:23:58.706Z,99.90
2018-10-18T06:26:29.956Z,99.90
2018-10-18T06:29:01.201Z,99.90
2018-10-18T06:31:50.333Z,99.90
2018-10-18T06:34:21.503Z,99.90
2018-10-18T06:36:53.267Z,99.90
2018-10-18T06:39:24.659Z,99.90
2018-10-18T06:41:55.973Z,99.90
2018-10-18T06:44:33.498Z,99.90
2018-10-18T06:47:05.183Z,99.90
2018-10-18T06:49:37.412Z,99.90
2018-10-18T06:52:09.028Z,99.90
2018-10-18T06:54:40.294Z,99.90
2018-10-18T06:57:11.713Z,99.90
2018-10-18T06:59:42.856Z,99.90
2018-10-18T07:02:14.014Z,99.90
2018-10-18T07:04:45.703Z,99.90
2018-10-18T07:07:16.939Z,99.90
2018-10-18T07:09:48.437Z,99.90
2018-10-18T07:12:20.021Z,99.90
2018-10-18T07:14:51.337Z,99.90
2018-10-18T07:17:23.248Z,99.90
2018-10-18T07:19:54.486Z,99.90
2018-10-18T07:22:26.219Z,99.90
2018-10-18T07:24:57.332Z,99.90
2018-10-18T07:27:28.491Z,99.90
2018-10-18T07:29:59.692Z,99.90
2018-10-18T07:32:33.012Z,99.90
2018-10-18T07:35:04.191Z,99.90
2018-10-18T07:37:36.074Z,99.90
2018-10-18T07:40:08.399Z,99.90
2018-10-18T07:42:40.339Z,99.90
2018-10-18T07:45:13.002Z,99.90
2018-10-18T07:47:44.812Z,99.90
2018-10-18T07:50:15.908Z,99.90
2018-10-18T07:52:47.461Z,99.90
2018-10-18T07:55:19.731Z,99.90
2018-10-18T07:57:50.953Z,99.90
2018-10-18T08:00:22.446Z,99.90
2018-10-18T08:02:53.773Z,99.90
2018-10-18T08:05:26.335Z,99.90
2018-10-18T08:07:57.630Z,99.90
2018-10-18T08:10:28.716Z,99.90
2018-10-18T08:13:00.370Z,99.90
2018-10-18T08:15:31.575Z,99.90
2018-10-18T08:18:04.456Z,99.90
2018-10-18T08:20:35.752Z,99.90
2018-10-18T08:23:07.751Z,99.90
2018-10-18T08:25:39.200Z,99.90
2018-10-18T08:28:10.596Z,99.90
2018-10-18T08:30:44.249Z,99.90
2018-10-18T08:33:16.046Z,99.90
2018-10-18T08:35:47.438Z,99.90
2018-10-18T08:38:19.019Z,99.90
2018-10-18T08:40:50.186Z,99.90
2018-10-18T08:43:22.240Z,99.90
2018-10-18T08:45:53.627Z,99.90
2018-10-18T08:48:25.065Z,99.90
2018-10-18T08:50:56.399Z,99.90
2018-10-18T08:53:27.709Z,99.90
2018-10-18T09:05:08.303Z,99.90
2018-10-18T09:07:39.518Z,99.90
2018-10-18T09:10:10.782Z,99.90
2018-10-18T09:12:42.372Z,99.90
2018-10-18T09:15:14.030Z,99.90
2018-10-18T09:17:45.088Z,99.90
2018-10-18T09:20:16.593Z,99.90
2018-10-18T09:22:47.986Z,99.90
2018-10-18T09:25:19.489Z,99.90
2018-10-18T09:27:51.036Z,99.90
2018-10-18T09:30:22.110Z,99.90
2018-10-18T09:32:53.592Z,99.90
2018-10-18T09:35:24.744Z,99.90
2018-10-18T09:37:56.706Z,99.90
2018-10-18T09:40:27.815Z,99.90
2018-10-18T09:42:59.094Z,99.90
2018-10-18T09:45:30.685Z,99.90
2018-10-18T09:48:01.852Z,99.90
2018-10-18T09:50:33.115Z,99.90
2018-10-18T09:53:04.397Z,99.90
2018-10-18T09:55:35.554Z,99.90
2018-10-18T09:58:06.943Z,99.90
2018-10-18T10:00:42.679Z,99.90
2018-10-18T10:03:16.573Z,99.90
2018-10-18T10:05:47.873Z,99.90
2018-10-18T10:08:19.043Z,99.90
2018-10-18T10:10:50.334Z,99.90
2018-10-18T10:13:21.587Z,99.90
2018-10-18T10:15:52.704Z,99.90
2018-10-18T10:18:23.778Z,99.90
2018-10-18T10:20:54.894Z,99.90
2018-10-18T10:23:26.254Z,99.90
2018-10-18T10:25:57.289Z,99.90
2018-10-18T10:28:28.497Z,99.90
2018-10-18T10:31:00.194Z,99.90
2018-10-18T10:33:31.471Z,99.90
2018-10-18T10:36:02.667Z,99.90
2018-10-18T10:50:46.505Z,99.90
2018-10-18T10:53:17.469Z,99.90
2018-10-18T10:55:48.381Z,99.90
2018-10-18T10:58:19.359Z,99.90
2018-10-18T11:01:14.009Z,99.90
2018-10-18T11:03:45.862Z,99.90
2018-10-18T11:06:17.429Z,99.90
2018-10-18T11:08:48.675Z,99.90
2018-10-18T11:11:20.960Z,99.90
2018-10-18T11:13:52.185Z,99.90
2018-10-18T11:16:23.356Z,99.90
2018-10-18T11:18:54.790Z,99.90
2018-10-18T11:21:26.555Z,99.90
2018-10-18T11:23:57.859Z,99.90
2018-10-18T11:26:29.057Z,99.90
2018-10-18T11:29:00.467Z,99.90
2018-10-18T11:31:31.771Z,99.90
2018-10-18T11:34:03.129Z,99.90
2018-10-18T11:36:34.455Z,99.90
2018-10-18T11:39:14.779Z,99.90
2018-10-18T11:41:47.516Z,99.90
2018-10-18T11:44:19.028Z,99.90
2018-10-18T11:46:50.134Z,99.90
2018-10-18T11:49:21.319Z,99.90
2018-10-18T11:51:52.386Z,99.90
2018-10-18T11:54:23.720Z,99.90
2018-10-18T11:56:54.672Z,99.90
2018-10-18T11:59:25.585Z,99.90
2018-10-18T12:01:56.913Z,99.90
2018-10-18T12:04:28.002Z,99.90
2018-10-18T12:06:59.436Z,99.90
2018-10-18T12:09:30.958Z,99.90
2018-10-18T12:12:01.870Z,99.90
2018-10-18T12:14:33.656Z,99.90
2018-10-18T12:17:04.754Z,99.90
2018-10-18T12:19:35.829Z,99.90
2018-10-18T12:22:07.247Z,99.90
2018-10-18T12:24:38.233Z,99.90
2018-10-18T12:27:09.525Z,99.90
2018-10-18T12:29:40.899Z,99.90
2018-10-18T12:32:11.973Z,99.90
2018-10-18T12:34:43.368Z,99.90
2018-10-18T12:37:14.679Z,99.90
2018-10-18T12:39:46.160Z,99.90
2018-10-18T12:42:17.197Z,99.90
2018-10-18T14:46:51.175Z,99.90
2018-10-18T14:49:22.167Z,99.90
2018-10-18T14:51:53.215Z,99.90
2018-10-18T14:54:24.549Z,99.90
2018-10-18T14:56:55.618Z,99.90
2018-10-18T14:59:27.551Z,99.90
2018-10-18T15:01:58.734Z,99.90
2018-10-18T15:04:30.071Z,99.90
2018-10-18T15:07:01.629Z,99.90
2018-10-18T15:09:33.039Z,99.90
2018-10-18T15:12:04.451Z,99.90
2018-10-18T15:14:35.782Z,99.90
2018-10-18T15:17:07.051Z,99.90
2018-10-18T15:19:38.129Z,99.90
2018-10-18T15:22:09.328Z,99.90
2018-10-18T15:24:40.484Z,99.90
2018-10-18T15:27:11.765Z,99.90
2018-10-18T15:29:43.121Z,99.90
2018-10-18T15:32:14.699Z,99.90
2018-10-18T15:34:46.179Z,99.90
2018-10-18T15:37:17.607Z,99.90
2018-10-18T15:39:48.840Z,99.90
2018-10-18T15:42:20.317Z,99.90
2018-10-18T15:44:51.283Z,99.90
2018-10-18T15:47:22.633Z,99.90
2018-10-18T15:49:54.295Z,99.90
2018-10-18T15:52:25.522Z,99.90
2018-10-18T15:54:56.744Z,99.90
2018-10-18T15:57:28.242Z,99.90
2018-10-18T15:59:59.557Z,99.90
2018-10-18T16:02:31.146Z,99.90
2018-10-18T16:05:02.319Z,99.90
2018-10-18T16:07:33.853Z,99.60
2018-10-18T16:10:06.832Z,97.60
2018-10-18T16:12:38.116Z,98.40
2018-10-18T16:15:11.148Z,98.00
2018-10-18T16:17:42.133Z,97.20
2018-10-18T16:20:13.816Z,98.80
2018-10-18T16:22:45.475Z,99.00
2018-10-18T16:25:16.408Z,98.40
2018-10-18T16:27:47.400Z,94.90
2018-10-18T16:30:18.593Z,95.80
2018-10-18T16:32:49.747Z,95.20
2018-10-18T16:35:20.975Z,94.20
2018-10-18T16:37:52.004Z,96.60
2018-10-18T16:40:23.159Z,99.90
2018-10-18T16:42:54.223Z,98.90
2018-10-18T16:45:25.475Z,95.30
2018-10-18T16:47:56.873Z,94.50
2018-10-18T16:50:28.226Z,93.80
2018-10-18T16:53:01.156Z,94.70
2018-10-18T16:55:32.184Z,94.60
2018-10-18T16:58:03.947Z,92.40
2018-10-18T17:00:35.642Z,93.70
2018-10-18T17:03:06.939Z,93.60
2018-10-18T17:05:38.119Z,93.40
2018-10-18T17:08:09.334Z,85.10
2018-10-18T17:10:40.478Z,89.00
2018-10-18T17:13:11.447Z,88.90
2018-10-18T17:15:42.639Z,86.90
2018-10-18T17:18:13.637Z,87.60
2018-10-18T17:20:45.401Z,88.40
2018-10-18T17:23:16.725Z,90.50
2018-10-18T17:25:48.030Z,82.50
2018-10-18T17:28:19.259Z,82.60
2018-10-18T17:30:50.712Z,80.00
2018-10-18T17:33:21.679Z,79.50
2018-10-18T17:35:52.687Z,77.60
2018-10-18T17:38:23.787Z,80.20
2018-10-18T17:40:55.330Z,73.00
2018-10-18T17:43:26.352Z,76.90
2018-10-18T17:45:57.554Z,70.00
2018-10-18T17:48:28.944Z,70.40
2018-10-18T17:51:00.314Z,66.60
2018-10-18T17:53:31.348Z,65.80
2018-10-18T17:56:02.629Z,67.40
2018-10-18T17:58:34.404Z,65.50
2018-10-18T18:01:05.767Z,63.60
2018-10-18T18:03:37.193Z,60.00
2018-10-18T18:06:08.706Z,63.80
2018-10-18T18:08:40.157Z,59.20
2018-10-18T18:11:11.490Z,60.70
2018-10-18T18:13:42.766Z,60.20
2018-10-18T18:16:13.996Z,61.30
2018-10-18T18:18:45.346Z,64.10
2018-10-18T18:21:16.846Z,62.90
2018-10-18T18:23:48.113Z,59.40
2018-10-18T18:26:19.469Z,62.40
2018-10-18T18:28:50.993Z,58.20
2018-10-18T18:31:22.049Z,58.30
2018-10-18T18:33:53.480Z,58.00
2018-10-18T18:36:24.638Z,58.70
2018-10-18T18:38:56.199Z,59.60
2018-10-18T18:41:27.473Z,60.10
2018-10-18T18:43:58.573Z,55.40
2018-10-18T18:46:29.696Z,58.10
2018-10-18T18:49:01.147Z,58.60
2018-10-18T18:51:32.484Z,59.80
2018-10-18T18:54:03.658Z,57.80
2018-10-18T18:56:34.970Z,56.80
2018-10-18T18:59:06.494Z,55.60
2018-10-18T19:01:37.672Z,57.00
2018-10-18T19:04:09.179Z,58.40
2018-10-18T19:06:40.573Z,59.80
2018-10-18T19:09:11.940Z,57.10
2018-10-18T19:11:43.469Z,56.40
2018-10-18T19:14:14.698Z,57.90
2018-10-18T19:16:46.079Z,57.60
2018-10-18T19:19:17.183Z,57.80
2018-10-18T19:21:48.484Z,59.40
2018-10-18T19:24:20.023Z,56.00
2018-10-18T19:26:51.257Z,54.30
2018-10-18T19:29:24.149Z,55.10
2018-10-18T19:31:55.667Z,55.80
2018-10-18T19:34:26.870Z,54.90
2018-10-18T19:36:57.974Z,54.70
2018-10-18T19:39:29.175Z,55.40
2018-10-18T19:42:00.590Z,54.00
2018-10-18T19:44:32.520Z,52.90
2018-10-18T19:47:03.795Z,53.60
2018-10-18T19:49:35.053Z,53.20
2018-10-18T19:52:09.493Z,55.20
2018-10-18T19:54:40.922Z,54.70
2018-10-18T19:57:12.114Z,55.00
2018-10-18T19:59:43.438Z,55.60
2018-10-18T20:02:14.750Z,54.50
2018-10-18T20:04:46.317Z,53.10
2018-10-18T20:07:17.554Z,53.70
2018-10-18T20:09:48.957Z,54.90
2018-10-18T20:12:20.227Z,53.80
2018-10-18T20:14:51.266Z,52.70
2018-10-18T20:17:22.754Z,53.20
2018-10-18T20:19:54.145Z,52.60
2018-10-18T20:22:25.915Z,52.10
2018-10-18T20:24:57.230Z,51.40
2018-10-18T20:27:28.329Z,52.20
2018-10-18T20:30:12.313Z,54.60
2018-10-18T20:32:44.003Z,56.30
2018-10-18T20:37:55.546Z,55.40
2018-10-18T20:40:26.631Z,56.10
2018-10-18T20:42:57.924Z,54.30
2018-10-18T20:45:33.796Z,53.40
2018-10-18T20:51:08.183Z,54.90
2018-10-18T20:53:39.525Z,53.90
2018-10-18T20:56:10.865Z,54.30
2018-10-18T20:58:42.500Z,54.00
2018-10-18T21:01:13.837Z,54.30
2018-10-18T21:03:45.448Z,53.90
2018-10-18T21:06:17.001Z,55.00
2018-10-18T21:08:48.561Z,55.40
2018-10-18T21:11:20.414Z,54.30
2018-10-18T21:13:51.767Z,54.70
2018-10-18T21:16:22.880Z,56.00
2018-10-18T21:18:54.439Z,56.40
2018-10-18T21:21:26.003Z,55.60
2018-10-18T21:23:57.149Z,55.80
2018-10-18T21:26:28.470Z,57.50
2018-10-18T21:28:59.952Z,56.30
2018-10-18T21:31:31.267Z,58.40
2018-10-18T21:34:02.683Z,58.90
2018-10-18T21:36:33.904Z,57.40
2018-10-18T21:39:06.364Z,56.90
2018-10-18T21:41:37.562Z,58.10
2018-10-18T21:44:08.928Z,59.60
2018-10-18T21:46:40.621Z,59.90
2018-10-18T21:49:12.313Z,60.20
2018-10-18T21:51:43.828Z,62.50
2018-10-18T21:54:15.479Z,62.70
2018-10-18T21:56:46.757Z,63.60
2018-10-18T21:59:18.223Z,65.10
2018-10-18T22:01:49.874Z,65.70
2018-10-18T22:04:21.215Z,64.20
2018-10-18T22:06:52.891Z,65.50
2018-10-18T22:09:24.420Z,65.40
2018-10-18T22:11:55.622Z,65.80
2018-10-18T22:14:26.988Z,63.80
2018-10-18T22:16:58.526Z,64.10
2018-10-18T22:19:29.786Z,64.50
2018-10-18T22:22:00.719Z,64.50
2018-10-18T22:24:31.913Z,65.40
2018-10-18T22:27:03.165Z,65.00
2018-10-18T22:29:34.380Z,65.50
2018-10-18T22:32:05.971Z,66.90
2018-10-18T22:34:37.250Z,66.90
2018-10-18T22:37:08.708Z,67.00
2018-10-18T22:39:40.388Z,66.00
2018-10-18T22:42:30.045Z,66.90
2018-10-18T22:45:01.379Z,66.40
2018-10-18T22:47:33.039Z,68.10
2018-10-18T22:50:05.686Z,66.80
2018-10-18T22:52:36.983Z,68.30
2018-10-18T22:55:08.739Z,69.20
2018-10-18T22:57:39.959Z,69.20
2018-10-18T23:00:13.063Z,69.50
2018-10-18T23:02:44.647Z,74.30
2018-10-18T23:05:16.062Z,78.50
2018-10-18T23:07:47.465Z,81.60
2018-10-18T23:10:18.814Z,82.40
2018-10-18T23:12:50.031Z,82.80
2018-10-18T23:15:21.225Z,90.60
2018-10-18T23:17:52.356Z,92.70
2018-10-18T23:20:23.701Z,94.90
2018-10-18T23:22:55.481Z,96.00
2018-10-18T23:25:27.503Z,98.90
2018-10-18T23:27:58.716Z,97.70
2018-10-18T23:30:29.836Z,97.30
2018-10-18T23:33:00.980Z,98.60
2018-10-18T23:35:32.704Z,98.00
2018-10-18T23:38:03.841Z,98.30
2018-10-18T23:40:35.084Z,96.90
2018-10-18T23:43:06.261Z,99.90
2018-10-18T23:45:37.710Z,99.90
2018-10-18T23:48:09.001Z,99.90
2018-10-18T23:50:40.522Z,99.90
2018-10-18T23:53:12.114Z,99.20
2018-10-18T23:55:43.568Z,99.90
2018-10-18T23:58:15.257Z,99.90
